createdAt,value
2019-02-22T00:02:09.176Z,102656.10
2019-02-22T00:04:41.080Z,102655.99
2019-02-22T00:07:10.579Z,102657.92
2019-02-22T00:09:57.875Z,102659.31
2019-02-22T00:12:30.569Z,102653.77
2019-02-22T00:15:00.197Z,102653.19
2019-02-22T00:17:29.691Z,102655.99
2019-02-22T00:19:59.173Z,102659.09
2019-02-22T00:22:28.578Z,102658.14
2019-02-22T00:24:58.166Z,102656.95
2019-02-22T00:27:27.876Z,102655.30
2019-02-22T00:30:01.984Z,102663.34
2019-02-22T00:32:42.447Z,102664.70
2019-02-22T00:35:10.672Z,102668.11
2019-02-22T00:37:40.226Z,102659.09
2019-02-22T00:40:09.531Z,102671.78
2019-02-22T00:42:41.540Z,102670.42
2019-02-22T00:45:16.737Z,102670.91
2019-02-22T00:47:50.775Z,102674.97
2019-02-22T00:50:22.776Z,102675.36
2019-02-22T00:52:57.153Z,102676.63
2019-02-22T00:55:26.974Z,102682.53
2019-02-22T00:58:02.119Z,102687.48
2019-02-22T01:00:35.759Z,102682.92
2019-02-22T01:03:18.608Z,102693.38
2019-02-22T01:05:50.974Z,102695.73
2019-02-22T01:08:29.460Z,102697.66
2019-02-22T01:10:59.092Z,102703.09
2019-02-22T01:13:28.812Z,102701.91
2019-02-22T01:15:58.492Z,102708.31
2019-02-22T01:18:31.114Z,102706.88
2019-02-22T01:21:00.602Z,102715.28
2019-02-22T01:23:33.013Z,102717.72
2019-02-22T01:26:04.917Z,102721.97
2019-02-22T01:28:37.113Z,102723.42
2019-02-22T01:31:10.460Z,102713.45
2019-02-22T01:33:39.937Z,102712.66
2019-02-22T01:36:14.283Z,102715.77
2019-02-22T01:38:49.037Z,102723.60
2019-02-22T01:41:20.952Z,102726.72
2019-02-22T01:43:50.349Z,102723.52
2019-02-22T01:46:22.878Z,102727.88
2019-02-22T01:48:54.058Z,102733.48
2019-02-22T01:51:25.572Z,102736.20
2019-02-22T01:54:00.183Z,102735.33
2019-02-22T01:56:32.260Z,102737.47
2019-02-22T01:59:11.390Z,102735.33
2019-02-22T02:01:51.307Z,102736.38
2019-02-22T02:04:23.328Z,102725.13
2019-02-22T02:06:53.265Z,102738.30
2019-02-22T02:09:25.942Z,102739.08
2019-02-22T02:12:02.198Z,102741.31
2019-02-22T02:14:33.258Z,102739.08
2019-02-22T02:17:11.580Z,102753.91
2019-02-22T02:19:44.683Z,102755.26
2019-02-22T02:22:39.187Z,102756.17
2019-02-22T02:25:11.019Z,102753.05
2019-02-22T02:27:43.255Z,102748.70
2019-02-22T02:30:18.401Z,102745.69
2019-02-22T02:32:49.785Z,102748.34
2019-02-22T02:35:32.018Z,102751.20
2019-02-22T02:38:01.488Z,102756.53
2019-02-22T02:40:31.669Z,102756.71
2019-02-22T02:43:06.986Z,102758.06
2019-02-22T02:45:36.763Z,102759.72
2019-02-22T02:48:06.487Z,102753.91
2019-02-22T02:50:38.604Z,102748.66
2019-02-22T02:53:15.543Z,102740.82
2019-02-22T02:55:47.761Z,102753.30
2019-02-22T02:58:22.992Z,102758.23
2019-02-22T03:00:57.667Z,102760.64
2019-02-22T03:03:28.078Z,102761.64
2019-02-22T03:06:22.975Z,102756.58
2019-02-22T03:08:55.100Z,102758.53
2019-02-22T03:11:29.158Z,102764.70
2019-02-22T03:14:04.064Z,102766.19
2019-02-22T03:16:40.320Z,102774.50
2019-02-22T03:19:12.995Z,102767.42
2019-02-22T03:21:45.693Z,102780.61
2019-02-22T03:24:13.839Z,102781.19
2019-02-22T03:29:52.490Z,102782.06
2019-02-22T03:32:32.181Z,102779.44
2019-02-22T03:35:19.545Z,102785.91
2019-02-22T03:37:48.792Z,102779.73
2019-02-22T03:40:16.438Z,102773.61
2019-02-22T03:42:53.214Z,102787.95
2019-02-22T03:45:24.798Z,102790.27
2019-02-22T03:48:02.435Z,102789.80
2019-02-22T03:50:32.686Z,102790.27
2019-02-22T03:53:24.361Z,102804.14
2019-02-22T03:55:54.011Z,102806.94
2019-02-22T03:58:25.489Z,102801.03
2019-02-22T04:00:55.251Z,102795.88
2019-02-22T04:03:26.630Z,102802.78
2019-02-22T04:05:59.276Z,102807.13
2019-02-22T04:08:24.129Z,102811.31
2019-02-22T04:11:14.688Z,102820.80
2019-02-22T04:13:49.943Z,102811.11
2019-02-22T04:16:23.554Z,102820.59
2019-02-22T04:18:54.153Z,102818.93
2019-02-22T04:21:23.690Z,102822.91
2019-02-22T04:23:55.251Z,102822.99
2019-02-22T04:26:33.856Z,102819.55
2019-02-22T04:29:05.479Z,102817.31
2019-02-22T04:31:39.666Z,102819.55
2019-02-22T04:34:16.030Z,102831.35
2019-02-22T04:36:56.481Z,102834.38
2019-02-22T04:39:35.163Z,102832.14
2019-02-22T04:42:06.283Z,102836.13
2019-02-22T04:44:36.214Z,102834.94
2019-02-22T04:47:21.882Z,102836.86
2019-02-22T04:49:52.150Z,102837.16
2019-02-22T04:52:26.659Z,102847.52
2019-02-22T04:55:00.827Z,102852.94
2019-02-22T04:57:40.690Z,102862.59
2019-02-22T05:00:42.902Z,102861.80
2019-02-22T05:03:25.938Z,102861.33
2019-02-22T05:05:58.832Z,102861.33
2019-02-22T05:08:45.914Z,102862.28
2019-02-22T05:11:19.261Z,102865.30
2019-02-22T05:14:06.231Z,102863.55
2019-02-22T05:16:44.429Z,102865.30
2019-02-22T05:19:21.819Z,102865.00
2019-02-22T05:22:06.938Z,102868.98
2019-02-22T05:24:42.517Z,102871.60
2019-02-22T05:27:17.466Z,102869.84
2019-02-22T05:29:48.754Z,102877.11
2019-02-22T05:32:22.446Z,102879.73
2019-02-22T05:34:57.873Z,102882.42
2019-02-22T05:37:33.399Z,102888.72
2019-02-22T05:40:07.958Z,102891.91
2019-02-22T05:42:42.022Z,102895.38
2019-02-22T05:45:18.434Z,102894.25
2019-02-22T05:48:00.350Z,102905.17
2019-02-22T05:50:33.344Z,102909.64
2019-02-22T05:53:23.004Z,102906.53
2019-02-22T05:55:49.679Z,102905.17
2019-02-22T05:58:29.439Z,102903.09
2019-02-22T06:01:06.708Z,102917.72
2019-02-22T06:03:38.913Z,102918.28
2019-02-22T06:06:11.522Z,102914.02
2019-02-22T06:08:47.325Z,102920.56
2019-02-22T06:11:31.310Z,102919.49
2019-02-22T06:14:10.480Z,102925.39
2019-02-22T06:16:58.169Z,102926.91
2019-02-22T06:19:30.692Z,102920.14
2019-02-22T06:22:07.869Z,102926.35
2019-02-22T06:24:47.227Z,102925.39
2019-02-22T06:27:16.369Z,102928.58
2019-02-22T06:30:22.445Z,102931.86
2019-02-22T06:32:59.731Z,102933.81
2019-02-22T06:35:32.948Z,102940.39
2019-02-22T06:38:11.516Z,102931.97
2019-02-22T06:41:21.386Z,102939.63
2019-02-22T06:44:13.691Z,102937.11
2019-02-22T06:47:04.365Z,102939.34
2019-02-22T06:50:09.162Z,102946.13
2019-02-22T06:57:28.631Z,102955.42
2019-02-22T08:50:34.748Z,103129.41
2019-02-22T08:53:03.676Z,103130.12
2019-02-22T08:55:32.556Z,103128.56
2019-02-22T08:58:01.643Z,103132.86
2019-02-22T09:00:30.584Z,103136.65
2019-02-22T09:03:14.959Z,103132.69
2019-02-22T09:05:43.910Z,103141.80
2019-02-22T09:08:12.830Z,103148.35
2019-02-22T09:10:41.724Z,103151.69
2019-02-22T09:13:43.107Z,103148.73
2019-02-22T09:16:02.794Z,103151.64
2019-02-22T09:18:31.745Z,103151.16
2019-02-22T09:21:00.618Z,103162.30
2019-02-22T09:23:29.525Z,103162.39
2019-02-22T09:26:19.058Z,103164.42
2019-02-22T09:28:45.700Z,103159.59
2019-02-22T09:31:14.685Z,103166.17
2019-02-22T09:33:43.559Z,103171.80
2019-02-22T09:36:12.450Z,103171.87
2019-02-22T09:38:41.420Z,103175.11
2019-02-22T09:41:10.390Z,103170.77
2019-02-22T09:43:55.035Z,103174.45
2019-02-22T09:46:24.314Z,103167.73
2019-02-22T09:49:02.471Z,103175.44
2019-02-22T09:51:34.527Z,103182.22
2019-02-22T09:54:03.455Z,103178.55
2019-02-22T09:56:32.536Z,103174.61
2019-02-22T09:59:13.488Z,103180.15
2019-02-22T10:01:42.412Z,103176.47
2019-02-22T10:04:11.281Z,103176.49
2019-02-22T10:06:40.212Z,103180.42
2019-02-22T10:09:09.104Z,103181.42
2019-02-22T10:11:38.176Z,103179.27
2019-02-22T10:14:07.281Z,103191.21
2019-02-22T10:16:36.076Z,103189.06
2019-02-22T10:19:04.981Z,103183.13
2019-02-22T10:21:33.874Z,103190.48
2019-02-22T10:24:02.778Z,103191.77
2019-02-22T10:30:16.967Z,103193.05
2019-02-22T10:32:45.869Z,103198.71
2019-02-22T10:35:14.858Z,103205.20
2019-02-22T10:37:43.963Z,103205.43
2019-02-22T10:40:12.880Z,103207.58
2019-02-22T10:42:41.774Z,103206.70
2019-02-22T10:45:10.651Z,103218.94
2019-02-22T10:47:39.651Z,103218.28
2019-02-22T10:50:08.554Z,103223.72
2019-02-22T10:52:37.777Z,103230.30
2019-02-22T10:55:43.001Z,103234.28
2019-02-22T11:02:37.899Z,103230.20
2019-02-22T11:04:50.518Z,103230.31
2019-02-22T11:08:18.855Z,103228.30
2019-02-22T11:15:38.205Z,103234.78
2019-02-22T11:18:25.400Z,103231.34
2019-02-22T11:24:45.914Z,103232.03
2019-02-22T11:28:37.728Z,103232.83
2019-02-22T11:32:00.524Z,103231.42
2019-02-22T11:35:34.290Z,103231.63
2019-02-22T11:38:10.438Z,103231.25
2019-02-22T11:45:31.794Z,103236.60
2019-02-22T11:48:48.673Z,103228.34
2019-02-22T11:55:00.900Z,103234.49
2019-02-22T12:05:17.344Z,103228.20
2019-02-22T12:07:46.878Z,103231.83
2019-02-22T12:10:28.705Z,103236.77
2019-02-22T12:13:31.928Z,103234.04
2019-02-22T12:19:22.801Z,103232.96
2019-02-22T12:22:06.263Z,103237.53
2019-02-22T12:24:36.210Z,103231.13
2019-02-22T12:27:33.571Z,103231.92
2019-02-22T12:30:26.420Z,103222.44
2019-02-22T12:34:11.349Z,103228.59
2019-02-22T12:36:44.303Z,103228.62
2019-02-22T12:39:57.098Z,103231.22
2019-02-22T12:46:10.216Z,103224.51
2019-02-22T12:49:11.253Z,103215.05
2019-02-22T12:52:25.557Z,103222.27
2019-02-22T12:55:09.316Z,103224.38
2019-02-22T13:01:21.624Z,103218.34
2019-02-22T13:04:09.892Z,103216.33
2019-02-22T13:10:08.271Z,103237.55
2019-02-22T13:12:48.189Z,103243.13
2019-02-22T13:15:52.928Z,103244.39
2019-02-22T13:18:32.636Z,103244.88
2019-02-22T13:21:44.576Z,103241.17
2019-02-22T13:24:17.480Z,103239.13
2019-02-22T13:30:41.491Z,103230.44
2019-02-22T13:33:28.812Z,103238.06
2019-02-22T13:36:23.528Z,103227.16
2019-02-22T13:39:04.675Z,103211.61
2019-02-22T13:41:42.745Z,103208.61
2019-02-22T13:44:39.195Z,103221.47
2019-02-22T13:47:10.849Z,103213.41
2019-02-22T13:52:57.820Z,103223.20
2019-02-22T13:55:33.635Z,103220.22
2019-02-22T13:58:13.979Z,103224.16
2019-02-22T14:01:56.209Z,103224.65
2019-02-22T14:07:34.291Z,103234.55
2019-02-22T14:11:03.453Z,103242.55
2019-02-22T14:14:24.507Z,103250.28
2019-02-22T14:20:31.012Z,103243.86
2019-02-22T14:23:06.692Z,103249.16
2019-02-22T14:25:54.890Z,103251.53
2019-02-22T14:28:42.576Z,103250.07
2019-02-22T14:31:35.034Z,103255.03
2019-02-22T14:34:30.247Z,103261.98
2019-02-22T14:40:28.376Z,103270.88
2019-02-22T14:43:16.081Z,103269.91
2019-02-22T14:45:49.614Z,103274.19
2019-02-22T14:52:02.132Z,103266.33
2019-02-22T14:54:34.550Z,103279.42
2019-02-22T14:57:08.658Z,103285.16
2019-02-22T14:59:49.248Z,103285.87
2019-02-22T15:02:36.546Z,103291.51
2019-02-22T15:05:14.101Z,103287.03
2019-02-22T15:07:53.058Z,103289.28
2019-02-22T15:10:51.527Z,103287.09
2019-02-22T15:19:02.265Z,103288.97
2019-02-22T15:22:07.390Z,103283.94
2019-02-22T15:24:44.175Z,103284.33
2019-02-22T15:27:14.969Z,103285.20
2019-02-22T15:29:44.325Z,103285.69
2019-02-22T15:32:22.052Z,103279.36
2019-02-22T15:35:25.445Z,103271.30
2019-02-22T15:38:10.170Z,103249.52
2019-02-22T15:41:06.695Z,103262.59
2019-02-22T15:43:19.304Z,103272.16
2019-02-22T15:45:54.722Z,103271.47
2019-02-22T15:48:46.432Z,103284.73
2019-02-22T15:51:46.145Z,103281.41
2019-02-22T15:54:44.222Z,103274.04
2019-02-22T15:57:49.769Z,103270.44
2019-02-22T16:00:44.162Z,103262.36
2019-02-22T16:04:41.705Z,103266.06
2019-02-22T16:07:46.419Z,103264.50
2019-02-22T16:10:17.070Z,103279.86
2019-02-22T16:12:55.583Z,103289.19
2019-02-22T16:15:24.913Z,103306.62
2019-02-22T16:17:53.801Z,103303.59
2019-02-22T16:20:28.005Z,103300.87
2019-02-22T16:22:57.091Z,103287.53
2019-02-22T16:25:26.273Z,103285.69
2019-02-22T16:28:08.026Z,103283.12
2019-02-22T16:30:42.192Z,103300.89
2019-02-22T16:33:14.694Z,103314.19
2019-02-22T16:35:47.078Z,103311.67
2019-02-22T16:38:20.295Z,103305.47
2019-02-22T16:40:49.360Z,103303.95
2019-02-22T16:43:18.478Z,103310.58
2019-02-22T16:45:47.994Z,103323.64
2019-02-22T16:48:17.108Z,103320.98
2019-02-22T16:50:48.132Z,103316.73
2019-02-22T16:53:18.518Z,103312.91
2019-02-22T16:55:47.498Z,103313.00
2019-02-22T16:58:39.553Z,103313.58
2019-02-22T17:01:08.946Z,103326.19
2019-02-22T17:03:37.922Z,103326.22
2019-02-22T17:06:07.097Z,103326.59
2019-02-22T17:08:35.985Z,103320.26
2019-02-22T17:11:04.861Z,103322.02
2019-02-22T17:13:33.844Z,103322.10
2019-02-22T17:16:18.300Z,103315.11
2019-02-22T17:18:47.141Z,103313.63
2019-02-22T17:21:16.521Z,103314.01
2019-02-22T17:23:45.560Z,103311.56
2019-02-22T17:26:43.174Z,103306.27
2019-02-22T17:29:43.778Z,103305.68
2019-02-22T17:32:13.989Z,103309.76
2019-02-22T17:34:42.787Z,103314.66
2019-02-22T17:37:25.762Z,103324.13
2019-02-22T17:39:54.856Z,103310.49
2019-02-22T17:42:37.626Z,103309.56
2019-02-22T17:45:07.039Z,103306.39
2019-02-22T17:47:36.157Z,103322.23
2019-02-22T17:50:22.831Z,103327.72
2019-02-22T17:55:41.912Z,103344.50
2019-02-22T17:58:11.509Z,103351.42
2019-02-22T18:00:40.792Z,103363.64
2019-02-22T18:03:09.771Z,103361.59
2019-02-22T18:05:40.591Z,103363.39
2019-02-22T18:08:09.675Z,103357.73
2019-02-22T18:10:38.738Z,103353.81
2019-02-22T18:13:07.765Z,103362.81
2019-02-22T18:15:36.704Z,103360.41
2019-02-22T18:18:05.767Z,103366.49
2019-02-22T18:20:35.120Z,103367.03
2019-02-22T18:23:05.092Z,103367.81
2019-02-22T18:25:36.380Z,103361.19
2019-02-22T18:28:05.698Z,103364.00
2019-02-22T18:30:35.273Z,103364.73
2019-02-22T18:33:06.913Z,103361.92
2019-02-22T18:35:36.098Z,103361.45
2019-02-22T18:38:07.344Z,103361.05
2019-02-22T18:40:48.302Z,103360.98
2019-02-22T18:43:18.448Z,103369.18
2019-02-22T18:45:48.057Z,103365.34
2019-02-22T18:48:19.934Z,103356.69
2019-02-22T18:50:47.392Z,103355.72
2019-02-22T18:53:18.918Z,103347.63
2019-02-22T18:57:01.571Z,103349.67
2019-02-22T19:02:24.425Z,103351.64
2019-02-22T19:05:02.769Z,103341.68
2019-02-22T19:07:35.495Z,103339.84
2019-02-22T19:10:08.431Z,103349.44
2019-02-22T19:12:44.104Z,103362.30
2019-02-22T19:15:19.634Z,103367.34
2019-02-22T19:17:58.385Z,103356.86
2019-02-22T19:20:31.312Z,103356.58
2019-02-22T19:23:03.756Z,103356.19
2019-02-22T19:25:34.307Z,103366.53
2019-02-22T19:28:03.436Z,103367.34
2019-02-22T19:30:32.762Z,103376.44
2019-02-22T19:33:02.398Z,103382.02
2019-02-22T19:35:32.105Z,103382.14
2019-02-22T19:38:01.735Z,103378.23
2019-02-22T19:40:30.884Z,103379.08
2019-02-22T19:43:00.151Z,103383.80
2019-02-22T19:45:33.805Z,103391.02
2019-02-22T19:48:01.524Z,103390.05
2019-02-22T19:50:40.754Z,103388.06
2019-02-22T19:53:00.477Z,103385.55
2019-02-22T19:55:29.781Z,103388.31
2019-02-22T19:58:00.596Z,103377.45
2019-02-22T20:00:32.417Z,103378.89
2019-02-22T20:03:07.225Z,103372.67
2019-02-22T20:06:18.251Z,103378.33
2019-02-22T20:09:47.280Z,103386.45
2019-02-22T20:12:32.507Z,103389.95
2019-02-22T20:18:12.026Z,103392.80
2019-02-22T20:20:58.546Z,103387.74
2019-02-22T20:23:55.037Z,103395.59
2019-02-22T20:26:15.892Z,103392.77
2019-02-22T20:28:48.654Z,103395.20
2019-02-22T20:31:21.005Z,103398.67
2019-02-22T20:33:59.484Z,103408.15
2019-02-22T20:36:28.743Z,103401.93
2019-02-22T20:39:07.802Z,103414.70
2019-02-22T20:41:36.761Z,103407.06
2019-02-22T20:44:08.616Z,103419.52
2019-02-22T20:46:40.341Z,103419.58
2019-02-22T20:49:09.376Z,103423.16
2019-02-22T20:51:52.136Z,103419.05
2019-02-22T20:54:21.628Z,103407.13
2019-02-22T20:56:53.612Z,103414.45
2019-02-22T20:59:25.651Z,103412.94
2019-02-22T21:01:54.797Z,103416.81
2019-02-22T21:04:26.084Z,103417.74
2019-02-22T21:06:57.938Z,103415.63
2019-02-22T21:09:27.039Z,103420.19
2019-02-22T21:12:03.863Z,103425.09
2019-02-22T21:14:33.016Z,103421.12
2019-02-22T21:17:02.231Z,103429.97
2019-02-22T21:19:31.687Z,103427.09
2019-02-22T21:22:00.782Z,103424.56
2019-02-22T21:24:29.888Z,103433.14
2019-02-22T21:26:58.948Z,103445.53
2019-02-22T21:29:29.096Z,103444.41
2019-02-22T21:31:58.358Z,103445.59
2019-02-22T21:34:32.738Z,103435.05
2019-02-22T21:37:12.146Z,103431.81
2019-02-22T21:39:42.751Z,103425.03
2019-02-22T21:42:19.808Z,103430.77
2019-02-22T21:44:43.021Z,103431.05
2019-02-22T21:47:12.258Z,103429.52
2019-02-22T21:50:15.683Z,103428.73
2019-02-22T21:52:40.207Z,103429.93
2019-02-22T21:55:09.900Z,103434.26
2019-02-22T21:57:41.887Z,103433.64
2019-02-22T22:00:21.104Z,103428.41
2019-02-22T22:02:50.416Z,103433.81
2019-02-22T22:05:31.752Z,103431.41
2019-02-22T22:08:01.614Z,103424.83
2019-02-22T22:10:30.895Z,103418.33
2019-02-22T22:12:59.973Z,103416.22
2019-02-22T22:15:29.102Z,103415.95
2019-02-22T22:17:58.180Z,103420.00
2019-02-22T22:20:27.330Z,103422.38
2019-02-22T22:22:56.465Z,103419.73
2019-02-22T22:25:25.780Z,103413.87
2019-02-22T22:27:55.041Z,103413.41
2019-02-22T22:30:24.206Z,103413.27
2019-02-22T22:32:56.209Z,103411.22
2019-02-22T22:35:25.311Z,103407.75
2019-02-22T22:37:57.612Z,103417.54
2019-02-22T22:40:26.711Z,103413.48
2019-02-22T22:42:55.797Z,103417.74
2019-02-22T22:45:25.042Z,103416.94
2019-02-22T22:47:53.965Z,103408.70
2019-02-22T22:50:23.059Z,103415.16
2019-02-22T22:52:52.239Z,103426.38
2019-02-22T22:55:21.449Z,103421.72
2019-02-22T22:57:52.792Z,103420.80
2019-02-22T23:01:05.815Z,103423.20
2019-02-22T23:03:35.914Z,103413.34
2019-02-22T23:06:05.367Z,103424.30
2019-02-22T23:08:34.404Z,103428.14
2019-02-22T23:11:03.945Z,103423.30
2019-02-22T23:13:33.090Z,103427.88
2019-02-22T23:16:02.485Z,103429.08
2019-02-22T23:18:31.591Z,103433.34
2019-02-22T23:21:00.860Z,103422.62
2019-02-22T23:23:29.917Z,103413.95
2019-02-22T23:25:59.410Z,103427.02
2019-02-22T23:28:28.500Z,103421.47
2019-02-22T23:30:57.766Z,103423.03
2019-02-22T23:33:26.835Z,103421.20
2019-02-22T23:35:55.937Z,103417.42
2019-02-22T23:38:25.200Z,103413.17
2019-02-22T23:40:54.297Z,103417.23
2019-02-22T23:43:23.332Z,103427.52
2019-02-22T23:45:52.455Z,103422.77
2019-02-22T23:48:22.150Z,103429.63
2019-02-22T23:50:51.219Z,103427.87
2019-02-22T23:53:20.541Z,103424.75
2019-02-22T23:55:49.636Z,103424.44
2019-02-22T23:58:18.971Z,103423.91
